sensor_id;sensor_type;location;lat;lon;timestamp;P1;durP1;ratioP1;P2;durP2;ratioP2
54705;SDS011;40603;48.774;8.916;2023-08-20T00:01:11;9.98;;;7.82;;
54705;SDS011;40603;48.774;8.916;2023-08-20T00:03:37;10.05;;;7.80;;
54705;SDS011;40603;48.774;8.916;2023-08-20T00:06:02;9.98;;;8.23;;
54705;SDS011;40603;48.774;8.916;2023-08-20T00:08:29;13.25;;;7.82;;
54705;SDS011;40603;48.774;8.916;2023-08-20T00:10:54;12.93;;;8.40;;
54705;SDS011;40603;48.774;8.916;2023-08-20T00:13:19;11.07;;;8.25;;
54705;SDS011;40603;48.774;8.916;2023-08-20T00:15:44;11.53;;;8.43;;
54705;SDS011;40603;48.774;8.916;2023-08-20T00:18:10;13.80;;;7.85;;
54705;SDS011;40603;48.774;8.916;2023-08-20T00:20:35;12.40;;;7.57;;
54705;SDS011;40603;48.774;8.916;2023-08-20T00:23:00;12.00;;;8.00;;
54705;SDS011;40603;48.774;8.916;2023-08-20T00:25:26;10.63;;;8.18;;
54705;SDS011;40603;48.774;8.916;2023-08-20T00:27:51;12.98;;;8.35;;
54705;SDS011;40603;48.774;8.916;2023-08-20T00:30:16;14.23;;;8.53;;
54705;SDS011;40603;48.774;8.916;2023-08-20T00:32:41;11.45;;;8.45;;
54705;SDS011;40603;48.774;8.916;2023-08-20T00:35:06;11.13;;;7.43;;
54705;SDS011;40603;48.774;8.916;2023-08-20T00:37:32;10.38;;;7.70;;
54705;SDS011;40603;48.774;8.916;2023-08-20T00:39:57;11.60;;;7.20;;
54705;SDS011;40603;48.774;8.916;2023-08-20T00:42:23;11.20;;;8.63;;
54705;SDS011;40603;48.774;8.916;2023-08-20T00:44:50;16.33;;;8.23;;
54705;SDS011;40603;48.774;8.916;2023-08-20T00:47:15;15.20;;;7.57;;
54705;SDS011;40603;48.774;8.916;2023-08-20T00:49:41;11.05;;;7.20;;
54705;SDS011;40603;48.774;8.916;2023-08-20T00:52:07;13.27;;;8.13;;
54705;SDS011;40603;48.774;8.916;2023-08-20T00:54:33;13.40;;;8.82;;
54705;SDS011;40603;48.774;8.916;2023-08-20T00:56:58;12.02;;;8.20;;
54705;SDS011;40603;48.774;8.916;2023-08-20T00:59:24;13.85;;;8.50;;
54705;SDS011;40603;48.774;8.916;2023-08-20T01:01:49;9.97;;;8.13;;
54705;SDS011;40603;48.774;8.916;2023-08-20T01:04:14;12.97;;;8.20;;
54705;SDS011;40603;48.774;8.916;2023-08-20T01:09:17;10.63;;;7.93;;
54705;SDS011;40603;48.774;8.916;2023-08-20T01:11:45;11.68;;;8.75;;
54705;SDS011;40603;48.774;8.916;2023-08-20T01:14:15;12.18;;;8.85;;
54705;SDS011;40603;48.774;8.916;2023-08-20T01:16:40;14.38;;;8.80;;
54705;SDS011;40603;48.774;8.916;2023-08-20T01:19:06;13.33;;;9.00;;
54705;SDS011;40603;48.774;8.916;2023-08-20T01:21:39;12.23;;;8.10;;
54705;SDS011;40603;48.774;8.916;2023-08-20T01:26:48;10.07;;;7.93;;
54705;SDS011;40603;48.774;8.916;2023-08-20T01:29:18;14.45;;;8.00;;
54705;SDS011;40603;48.774;8.916;2023-08-20T01:31:43;10.38;;;8.25;;
54705;SDS011;40603;48.774;8.916;2023-08-20T01:34:09;14.13;;;8.50;;
54705;SDS011;40603;48.774;8.916;2023-08-20T01:36:34;13.05;;;8.20;;
54705;SDS011;40603;48.774;8.916;2023-08-20T01:38:59;16.70;;;8.82;;
54705;SDS011;40603;48.774;8.916;2023-08-20T01:41:24;12.30;;;9.18;;
54705;SDS011;40603;48.774;8.916;2023-08-20T01:43:49;10.50;;;8.23;;
54705;SDS011;40603;48.774;8.916;2023-08-20T01:46:14;15.53;;;9.10;;
54705;SDS011;40603;48.774;8.916;2023-08-20T01:48:40;8.85;;;7.55;;
54705;SDS011;40603;48.774;8.916;2023-08-20T01:51:05;11.70;;;6.93;;
54705;SDS011;40603;48.774;8.916;2023-08-20T01:53:31;12.75;;;8.20;;
54705;SDS011;40603;48.774;8.916;2023-08-20T01:55:56;10.52;;;7.40;;
54705;SDS011;40603;48.774;8.916;2023-08-20T01:58:21;12.37;;;7.80;;
54705;SDS011;40603;48.774;8.916;2023-08-20T02:00:46;11.87;;;8.23;;
54705;SDS011;40603;48.774;8.916;2023-08-20T02:03:12;13.52;;;9.32;;
54705;SDS011;40603;48.774;8.916;2023-08-20T02:05:37;17.90;;;9.23;;
54705;SDS011;40603;48.774;8.916;2023-08-20T02:08:03;13.90;;;9.93;;
54705;SDS011;40603;48.774;8.916;2023-08-20T02:10:28;15.30;;;9.05;;
54705;SDS011;40603;48.774;8.916;2023-08-20T02:12:53;9.80;;;8.80;;
54705;SDS011;40603;48.774;8.916;2023-08-20T02:15:18;14.17;;;9.37;;
54705;SDS011;40603;48.774;8.916;2023-08-20T02:17:44;13.77;;;9.63;;
54705;SDS011;40603;48.774;8.916;2023-08-20T02:20:09;11.82;;;8.82;;
54705;SDS011;40603;48.774;8.916;2023-08-20T02:22:37;9.98;;;8.15;;
54705;SDS011;40603;48.774;8.916;2023-08-20T02:25:02;11.63;;;8.07;;
54705;SDS011;40603;48.774;8.916;2023-08-20T02:27:27;12.25;;;9.32;;
54705;SDS011;40603;48.774;8.916;2023-08-20T02:29:53;14.77;;;9.10;;
54705;SDS011;40603;48.774;8.916;2023-08-20T02:32:18;13.32;;;8.48;;
54705;SDS011;40603;48.774;8.916;2023-08-20T02:34:43;12.30;;;8.45;;
54705;SDS011;40603;48.774;8.916;2023-08-20T02:37:09;12.02;;;8.07;;
54705;SDS011;40603;48.774;8.916;2023-08-20T02:39:34;13.90;;;8.70;;
54705;SDS011;40603;48.774;8.916;2023-08-20T02:41:59;10.87;;;8.60;;
54705;SDS011;40603;48.774;8.916;2023-08-20T02:44:24;12.17;;;9.20;;
54705;SDS011;40603;48.774;8.916;2023-08-20T02:46:49;11.47;;;9.00;;
54705;SDS011;40603;48.774;8.916;2023-08-20T02:49:14;9.50;;;8.05;;
54705;SDS011;40603;48.774;8.916;2023-08-20T02:51:40;11.70;;;8.03;;
54705;SDS011;40603;48.774;8.916;2023-08-20T02:54:06;10.20;;;7.63;;
54705;SDS011;40603;48.774;8.916;2023-08-20T02:56:31;11.33;;;9.47;;
54705;SDS011;40603;48.774;8.916;2023-08-20T02:58:57;11.67;;;8.20;;
54705;SDS011;40603;48.774;8.916;2023-08-20T03:01:22;10.70;;;9.48;;
54705;SDS011;40603;48.774;8.916;2023-08-20T03:03:47;12.63;;;8.63;;
54705;SDS011;40603;48.774;8.916;2023-08-20T03:06:13;10.43;;;8.88;;
54705;SDS011;40603;48.774;8.916;2023-08-20T03:08:38;11.98;;;9.20;;
54705;SDS011;40603;48.774;8.916;2023-08-20T03:11:03;15.07;;;9.50;;
54705;SDS011;40603;48.774;8.916;2023-08-20T03:13:28;10.90;;;9.23;;
54705;SDS011;40603;48.774;8.916;2023-08-20T03:15:53;14.57;;;9.43;;
54705;SDS011;40603;48.774;8.916;2023-08-20T03:18:19;14.15;;;9.07;;
54705;SDS011;40603;48.774;8.916;2023-08-20T03:20:44;15.02;;;9.20;;
54705;SDS011;40603;48.774;8.916;2023-08-20T03:23:09;13.35;;;8.90;;
54705;SDS011;40603;48.774;8.916;2023-08-20T03:25:34;13.60;;;8.03;;
54705;SDS011;40603;48.774;8.916;2023-08-20T03:27:59;11.32;;;8.80;;
54705;SDS011;40603;48.774;8.916;2023-08-20T03:30:24;12.80;;;9.67;;
54705;SDS011;40603;48.774;8.916;2023-08-20T03:32:49;14.00;;;9.57;;
54705;SDS011;40603;48.774;8.916;2023-08-20T03:35:15;16.63;;;10.45;;
54705;SDS011;40603;48.774;8.916;2023-08-20T03:37:41;14.77;;;9.60;;
54705;SDS011;40603;48.774;8.916;2023-08-20T03:40:06;15.20;;;11.27;;
54705;SDS011;40603;48.774;8.916;2023-08-20T03:42:31;12.10;;;10.23;;
54705;SDS011;40603;48.774;8.916;2023-08-20T03:44:56;14.50;;;10.63;;
54705;SDS011;40603;48.774;8.916;2023-08-20T03:47:21;14.83;;;11.20;;
54705;SDS011;40603;48.774;8.916;2023-08-20T03:49:47;12.13;;;10.17;;
54705;SDS011;40603;48.774;8.916;2023-08-20T03:52:13;17.08;;;10.20;;
54705;SDS011;40603;48.774;8.916;2023-08-20T03:54:38;17.25;;;10.48;;
54705;SDS011;40603;48.774;8.916;2023-08-20T03:57:03;11.53;;;9.57;;
54705;SDS011;40603;48.774;8.916;2023-08-20T03:59:29;13.20;;;9.37;;
54705;SDS011;40603;48.774;8.916;2023-08-20T04:01:54;13.85;;;10.05;;
54705;SDS011;40603;48.774;8.916;2023-08-20T04:04:19;12.40;;;8.77;;
54705;SDS011;40603;48.774;8.916;2023-08-20T04:06:46;11.50;;;8.68;;
54705;SDS011;40603;48.774;8.916;2023-08-20T04:09:11;11.18;;;9.98;;
54705;SDS011;40603;48.774;8.916;2023-08-20T04:11:36;12.52;;;9.40;;
54705;SDS011;40603;48.774;8.916;2023-08-20T04:14:01;12.32;;;9.40;;
54705;SDS011;40603;48.774;8.916;2023-08-20T04:16:27;11.70;;;9.13;;
54705;SDS011;40603;48.774;8.916;2023-08-20T04:18:53;16.63;;;8.77;;
54705;SDS011;40603;48.774;8.916;2023-08-20T04:21:18;12.13;;;9.20;;
54705;SDS011;40603;48.774;8.916;2023-08-20T04:23:43;12.18;;;8.45;;
54705;SDS011;40603;48.774;8.916;2023-08-20T04:26:08;10.57;;;9.00;;
54705;SDS011;40603;48.774;8.916;2023-08-20T04:28:33;12.40;;;9.47;;
54705;SDS011;40603;48.774;8.916;2023-08-20T04:30:59;16.87;;;8.87;;
54705;SDS011;40603;48.774;8.916;2023-08-20T04:33:25;12.20;;;8.45;;
54705;SDS011;40603;48.774;8.916;2023-08-20T04:35:50;13.23;;;8.82;;
54705;SDS011;40603;48.774;8.916;2023-08-20T04:38:15;9.73;;;8.73;;
54705;SDS011;40603;48.774;8.916;2023-08-20T04:40:41;10.23;;;8.52;;
54705;SDS011;40603;48.774;8.916;2023-08-20T04:43:06;14.23;;;8.95;;
54705;SDS011;40603;48.774;8.916;2023-08-20T04:45:31;15.23;;;9.52;;
54705;SDS011;40603;48.774;8.916;2023-08-20T04:47:56;12.03;;;9.23;;
54705;SDS011;40603;48.774;8.916;2023-08-20T04:50:21;11.63;;;9.17;;
54705;SDS011;40603;48.774;8.916;2023-08-20T04:52:46;14.57;;;8.98;;
54705;SDS011;40603;48.774;8.916;2023-08-20T04:55:12;13.85;;;9.57;;
54705;SDS011;40603;48.774;8.916;2023-08-20T04:57:37;12.40;;;9.43;;
54705;SDS011;40603;48.774;8.916;2023-08-20T05:00:02;13.03;;;9.00;;
54705;SDS011;40603;48.774;8.916;2023-08-20T05:02:27;15.45;;;8.43;;
54705;SDS011;40603;48.774;8.916;2023-08-20T05:04:53;12.90;;;8.57;;
54705;SDS011;40603;48.774;8.916;2023-08-20T05:07:18;10.73;;;8.38;;
54705;SDS011;40603;48.774;8.916;2023-08-20T05:09:43;15.47;;;9.10;;
54705;SDS011;40603;48.774;8.916;2023-08-20T05:12:08;15.67;;;9.03;;
54705;SDS011;40603;48.774;8.916;2023-08-20T05:14:33;13.37;;;9.67;;
54705;SDS011;40603;48.774;8.916;2023-08-20T05:16:59;12.20;;;9.10;;
54705;SDS011;40603;48.774;8.916;2023-08-20T05:19:24;13.55;;;10.27;;
54705;SDS011;40603;48.774;8.916;2023-08-20T05:21:49;12.85;;;9.32;;
54705;SDS011;40603;48.774;8.916;2023-08-20T05:24:14;14.27;;;10.13;;
54705;SDS011;40603;48.774;8.916;2023-08-20T05:26:40;10.07;;;8.87;;
54705;SDS011;40603;48.774;8.916;2023-08-20T05:29:05;10.30;;;8.50;;
54705;SDS011;40603;48.774;8.916;2023-08-20T05:31:30;19.23;;;10.57;;
54705;SDS011;40603;48.774;8.916;2023-08-20T05:33:55;13.27;;;10.93;;
54705;SDS011;40603;48.774;8.916;2023-08-20T05:36:20;14.98;;;11.75;;
54705;SDS011;40603;48.774;8.916;2023-08-20T05:38:45;17.88;;;11.77;;
54705;SDS011;40603;48.774;8.916;2023-08-20T05:41:10;16.20;;;12.47;;
54705;SDS011;40603;48.774;8.916;2023-08-20T05:43:36;11.95;;;10.02;;
54705;SDS011;40603;48.774;8.916;2023-08-20T05:46:01;13.82;;;11.63;;
54705;SDS011;40603;48.774;8.916;2023-08-20T05:48:26;14.80;;;12.13;;
54705;SDS011;40603;48.774;8.916;2023-08-20T05:50:52;16.00;;;12.07;;
54705;SDS011;40603;48.774;8.916;2023-08-20T05:53:17;14.75;;;11.23;;
54705;SDS011;40603;48.774;8.916;2023-08-20T05:55:42;13.95;;;10.98;;
54705;SDS011;40603;48.774;8.916;2023-08-20T05:58:07;17.03;;;11.27;;
54705;SDS011;40603;48.774;8.916;2023-08-20T06:00:32;12.05;;;10.15;;
54705;SDS011;40603;48.774;8.916;2023-08-20T06:02:57;13.27;;;11.45;;
54705;SDS011;40603;48.774;8.916;2023-08-20T06:05:23;11.97;;;10.33;;
54705;SDS011;40603;48.774;8.916;2023-08-20T06:07:48;12.98;;;10.88;;
54705;SDS011;40603;48.774;8.916;2023-08-20T06:10:13;13.13;;;10.57;;
54705;SDS011;40603;48.774;8.916;2023-08-20T06:12:38;16.93;;;11.30;;
54705;SDS011;40603;48.774;8.916;2023-08-20T06:15:03;14.10;;;10.93;;
54705;SDS011;40603;48.774;8.916;2023-08-20T06:17:29;12.57;;;10.77;;
54705;SDS011;40603;48.774;8.916;2023-08-20T06:19:54;13.77;;;10.67;;
54705;SDS011;40603;48.774;8.916;2023-08-20T06:22:19;14.52;;;10.98;;
54705;SDS011;40603;48.774;8.916;2023-08-20T06:24:44;12.68;;;10.52;;
54705;SDS011;40603;48.774;8.916;2023-08-20T06:27:10;12.57;;;9.50;;
54705;SDS011;40603;48.774;8.916;2023-08-20T06:29:35;16.40;;;10.63;;
54705;SDS011;40603;48.774;8.916;2023-08-20T06:32:00;14.00;;;10.77;;
54705;SDS011;40603;48.774;8.916;2023-08-20T06:34:25;16.50;;;9.73;;
54705;SDS011;40603;48.774;8.916;2023-08-20T06:36:50;12.70;;;9.57;;
54705;SDS011;40603;48.774;8.916;2023-08-20T06:39:15;11.20;;;9.60;;
54705;SDS011;40603;48.774;8.916;2023-08-20T06:41:41;21.23;;;9.98;;
54705;SDS011;40603;48.774;8.916;2023-08-20T06:44:06;11.95;;;9.80;;
54705;SDS011;40603;48.774;8.916;2023-08-20T06:46:31;14.80;;;9.73;;
54705;SDS011;40603;48.774;8.916;2023-08-20T06:48:57;9.77;;;8.32;;
54705;SDS011;40603;48.774;8.916;2023-08-20T06:51:22;11.07;;;8.87;;
54705;SDS011;40603;48.774;8.916;2023-08-20T06:53:47;10.68;;;9.15;;
54705;SDS011;40603;48.774;8.916;2023-08-20T06:56:13;10.45;;;8.82;;
54705;SDS011;40603;48.774;8.916;2023-08-20T06:58:38;9.37;;;8.47;;
54705;SDS011;40603;48.774;8.916;2023-08-20T07:01:04;11.85;;;9.48;;
54705;SDS011;40603;48.774;8.916;2023-08-20T07:03:38;11.68;;;9.27;;
54705;SDS011;40603;48.774;8.916;2023-08-20T07:06:04;10.82;;;9.10;;
54705;SDS011;40603;48.774;8.916;2023-08-20T07:08:29;12.23;;;9.32;;
54705;SDS011;40603;48.774;8.916;2023-08-20T07:10:55;13.35;;;8.68;;
54705;SDS011;40603;48.774;8.916;2023-08-20T07:13:20;11.50;;;9.55;;
54705;SDS011;40603;48.774;8.916;2023-08-20T07:15:45;12.50;;;8.85;;
54705;SDS011;40603;48.774;8.916;2023-08-20T07:18:10;21.37;;;9.80;;
54705;SDS011;40603;48.774;8.916;2023-08-20T07:20:38;12.68;;;9.27;;
54705;SDS011;40603;48.774;8.916;2023-08-20T07:23:03;12.18;;;8.77;;
54705;SDS011;40603;48.774;8.916;2023-08-20T07:25:28;14.82;;;9.82;;
54705;SDS011;40603;48.774;8.916;2023-08-20T07:27:54;11.27;;;8.32;;
54705;SDS011;40603;48.774;8.916;2023-08-20T07:30:24;11.18;;;8.40;;
54705;SDS011;40603;48.774;8.916;2023-08-20T07:32:49;11.13;;;8.82;;
54705;SDS011;40603;48.774;8.916;2023-08-20T07:35:14;10.43;;;9.00;;
54705;SDS011;40603;48.774;8.916;2023-08-20T07:37:39;12.77;;;8.18;;
54705;SDS011;40603;48.774;8.916;2023-08-20T07:40:04;9.97;;;8.67;;
54705;SDS011;40603;48.774;8.916;2023-08-20T07:42:30;12.02;;;8.70;;
54705;SDS011;40603;48.774;8.916;2023-08-20T07:44:55;14.00;;;8.88;;
54705;SDS011;40603;48.774;8.916;2023-08-20T07:47:20;9.73;;;8.70;;
54705;SDS011;40603;48.774;8.916;2023-08-20T07:49:45;11.20;;;8.55;;
54705;SDS011;40603;48.774;8.916;2023-08-20T07:52:10;10.45;;;8.32;;
54705;SDS011;40603;48.774;8.916;2023-08-20T07:54:35;10.45;;;8.35;;
54705;SDS011;40603;48.774;8.916;2023-08-20T07:57:01;11.02;;;8.23;;
54705;SDS011;40603;48.774;8.916;2023-08-20T07:59:26;10.27;;;8.27;;
54705;SDS011;40603;48.774;8.916;2023-08-20T08:01:51;11.57;;;7.93;;
54705;SDS011;40603;48.774;8.916;2023-08-20T08:04:17;11.57;;;8.63;;
54705;SDS011;40603;48.774;8.916;2023-08-20T08:06:42;14.60;;;8.85;;
54705;SDS011;40603;48.774;8.916;2023-08-20T08:09:20;12.83;;;9.17;;
54705;SDS011;40603;48.774;8.916;2023-08-20T08:11:46;9.18;;;8.00;;
54705;SDS011;40603;48.774;8.916;2023-08-20T08:14:11;13.13;;;8.60;;
54705;SDS011;40603;48.774;8.916;2023-08-20T08:16:37;11.57;;;7.75;;
54705;SDS011;40603;48.774;8.916;2023-08-20T08:19:02;13.10;;;8.35;;
54705;SDS011;40603;48.774;8.916;2023-08-20T08:21:27;13.13;;;9.03;;
54705;SDS011;40603;48.774;8.916;2023-08-20T08:23:52;12.93;;;8.80;;
54705;SDS011;40603;48.774;8.916;2023-08-20T08:26:17;16.42;;;9.73;;
54705;SDS011;40603;48.774;8.916;2023-08-20T08:28:42;13.32;;;10.07;;
54705;SDS011;40603;48.774;8.916;2023-08-20T08:31:07;15.80;;;8.98;;
54705;SDS011;40603;48.774;8.916;2023-08-20T08:33:33;14.10;;;9.30;;
54705;SDS011;40603;48.774;8.916;2023-08-20T08:35:58;12.30;;;8.48;;
54705;SDS011;40603;48.774;8.916;2023-08-20T08:38:23;12.02;;;9.45;;
54705;SDS011;40603;48.774;8.916;2023-08-20T08:40:48;9.93;;;8.27;;
54705;SDS011;40603;48.774;8.916;2023-08-20T08:43:14;11.75;;;8.38;;
54705;SDS011;40603;48.774;8.916;2023-08-20T08:45:42;12.15;;;8.15;;
54705;SDS011;40603;48.774;8.916;2023-08-20T08:48:09;17.10;;;9.70;;
54705;SDS011;40603;48.774;8.916;2023-08-20T08:50:34;12.65;;;9.05;;
54705;SDS011;40603;48.774;8.916;2023-08-20T08:53:00;14.07;;;8.80;;
54705;SDS011;40603;48.774;8.916;2023-08-20T08:55:25;12.63;;;9.30;;
54705;SDS011;40603;48.774;8.916;2023-08-20T08:57:51;13.55;;;9.27;;
54705;SDS011;40603;48.774;8.916;2023-08-20T09:00:16;13.40;;;9.23;;
54705;SDS011;40603;48.774;8.916;2023-08-20T09:02:41;14.07;;;8.85;;
54705;SDS011;40603;48.774;8.916;2023-08-20T09:05:06;12.65;;;8.27;;
54705;SDS011;40603;48.774;8.916;2023-08-20T09:07:32;11.18;;;8.45;;
54705;SDS011;40603;48.774;8.916;2023-08-20T09:09:58;9.83;;;7.60;;
54705;SDS011;40603;48.774;8.916;2023-08-20T09:12:24;13.32;;;6.88;;
54705;SDS011;40603;48.774;8.916;2023-08-20T09:14:51;10.07;;;7.20;;
54705;SDS011;40603;48.774;8.916;2023-08-20T09:17:17;8.48;;;7.28;;
54705;SDS011;40603;48.774;8.916;2023-08-20T09:19:43;13.43;;;8.40;;
54705;SDS011;40603;48.774;8.916;2023-08-20T09:22:10;11.88;;;7.30;;
54705;SDS011;40603;48.774;8.916;2023-08-20T09:27:03;8.82;;;6.53;;
54705;SDS011;40603;48.774;8.916;2023-08-20T09:29:31;11.63;;;6.68;;
54705;SDS011;40603;48.774;8.916;2023-08-20T09:32:00;10.18;;;6.25;;
54705;SDS011;40603;48.774;8.916;2023-08-20T09:34:34;9.52;;;6.15;;
54705;SDS011;40603;48.774;8.916;2023-08-20T09:37:00;7.57;;;6.65;;
54705;SDS011;40603;48.774;8.916;2023-08-20T09:39:25;10.00;;;6.10;;
54705;SDS011;40603;48.774;8.916;2023-08-20T09:41:51;9.17;;;6.20;;
54705;SDS011;40603;48.774;8.916;2023-08-20T09:44:16;9.87;;;5.87;;
54705;SDS011;40603;48.774;8.916;2023-08-20T09:46:41;10.65;;;5.80;;
54705;SDS011;40603;48.774;8.916;2023-08-20T09:49:07;7.93;;;5.85;;
54705;SDS011;40603;48.774;8.916;2023-08-20T09:51:35;12.15;;;7.05;;
54705;SDS011;40603;48.774;8.916;2023-08-20T09:56:37;9.88;;;5.90;;
54705;SDS011;40603;48.774;8.916;2023-08-20T09:59:03;8.93;;;5.35;;
54705;SDS011;40603;48.774;8.916;2023-08-20T10:01:29;6.88;;;5.60;;
54705;SDS011;40603;48.774;8.916;2023-08-20T10:03:55;6.38;;;5.68;;
54705;SDS011;40603;48.774;8.916;2023-08-20T10:06:20;9.13;;;5.50;;
54705;SDS011;40603;48.774;8.916;2023-08-20T10:08:46;8.73;;;5.90;;
54705;SDS011;40603;48.774;8.916;2023-08-20T10:11:14;9.77;;;5.30;;
54705;SDS011;40603;48.774;8.916;2023-08-20T10:13:39;6.47;;;5.35;;
54705;SDS011;40603;48.774;8.916;2023-08-20T10:16:04;11.73;;;5.47;;
54705;SDS011;40603;48.774;8.916;2023-08-20T10:18:30;11.98;;;5.50;;
54705;SDS011;40603;48.774;8.916;2023-08-20T10:20:57;8.73;;;5.10;;
54705;SDS011;40603;48.774;8.916;2023-08-20T10:23:22;13.82;;;6.05;;
54705;SDS011;40603;48.774;8.916;2023-08-20T10:25:53;8.77;;;5.30;;
54705;SDS011;40603;48.774;8.916;2023-08-20T10:28:23;5.50;;;4.65;;
54705;SDS011;40603;48.774;8.916;2023-08-20T10:33:37;9.48;;;6.05;;
54705;SDS011;40603;48.774;8.916;2023-08-20T10:36:15;11.30;;;5.30;;
54705;SDS011;40603;48.774;8.916;2023-08-20T10:38:41;9.50;;;5.35;;
54705;SDS011;40603;48.774;8.916;2023-08-20T10:41:07;8.27;;;6.03;;
54705;SDS011;40603;48.774;8.916;2023-08-20T10:43:39;8.85;;;5.57;;
54705;SDS011;40603;48.774;8.916;2023-08-20T10:46:05;10.97;;;5.67;;
54705;SDS011;40603;48.774;8.916;2023-08-20T10:48:36;7.60;;;5.40;;
54705;SDS011;40603;48.774;8.916;2023-08-20T10:53:36;10.38;;;6.32;;
54705;SDS011;40603;48.774;8.916;2023-08-20T10:56:11;9.93;;;5.93;;
54705;SDS011;40603;48.774;8.916;2023-08-20T10:58:44;7.22;;;5.68;;
54705;SDS011;40603;48.774;8.916;2023-08-20T11:01:14;13.43;;;5.65;;
54705;SDS011;40603;48.774;8.916;2023-08-20T11:03:40;9.95;;;5.35;;
54705;SDS011;40603;48.774;8.916;2023-08-20T11:06:06;8.65;;;5.47;;
54705;SDS011;40603;48.774;8.916;2023-08-20T11:08:31;11.43;;;5.63;;
54705;SDS011;40603;48.774;8.916;2023-08-20T11:10:56;11.30;;;5.95;;
54705;SDS011;40603;48.774;8.916;2023-08-20T11:13:21;14.10;;;6.07;;
54705;SDS011;40603;48.774;8.916;2023-08-20T11:15:47;8.23;;;5.60;;
54705;SDS011;40603;48.774;8.916;2023-08-20T11:18:12;11.70;;;5.83;;
54705;SDS011;40603;48.774;8.916;2023-08-20T11:20:37;6.63;;;5.53;;
54705;SDS011;40603;48.774;8.916;2023-08-20T11:23:03;7.43;;;5.15;;
54705;SDS011;40603;48.774;8.916;2023-08-20T11:25:28;7.33;;;5.00;;
54705;SDS011;40603;48.774;8.916;2023-08-20T11:27:53;7.93;;;5.20;;
54705;SDS011;40603;48.774;8.916;2023-08-20T11:30:19;8.10;;;5.77;;
54705;SDS011;40603;48.774;8.916;2023-08-20T11:32:44;9.53;;;5.63;;
54705;SDS011;40603;48.774;8.916;2023-08-20T11:35:10;12.95;;;6.60;;
54705;SDS011;40603;48.774;8.916;2023-08-20T11:37:36;6.43;;;5.07;;
54705;SDS011;40603;48.774;8.916;2023-08-20T11:40:01;7.70;;;5.30;;
54705;SDS011;40603;48.774;8.916;2023-08-20T11:42:26;7.80;;;5.35;;
54705;SDS011;40603;48.774;8.916;2023-08-20T11:44:51;6.90;;;5.37;;
54705;SDS011;40603;48.774;8.916;2023-08-20T11:47:19;8.90;;;5.30;;
54705;SDS011;40603;48.774;8.916;2023-08-20T11:49:45;6.30;;;4.63;;
54705;SDS011;40603;48.774;8.916;2023-08-20T11:52:10;5.10;;;4.45;;
54705;SDS011;40603;48.774;8.916;2023-08-20T11:54:35;8.85;;;5.15;;
54705;SDS011;40603;48.774;8.916;2023-08-20T11:57:04;11.05;;;5.25;;
54705;SDS011;40603;48.774;8.916;2023-08-20T11:59:30;7.05;;;5.80;;
54705;SDS011;40603;48.774;8.916;2023-08-20T12:01:56;8.47;;;5.00;;
54705;SDS011;40603;48.774;8.916;2023-08-20T12:04:23;12.00;;;5.90;;
54705;SDS011;40603;48.774;8.916;2023-08-20T12:06:52;9.18;;;5.25;;
54705;SDS011;40603;48.774;8.916;2023-08-20T12:09:26;6.70;;;5.00;;
54705;SDS011;40603;48.774;8.916;2023-08-20T12:11:51;10.10;;;5.18;;
54705;SDS011;40603;48.774;8.916;2023-08-20T12:14:19;11.30;;;5.10;;
54705;SDS011;40603;48.774;8.916;2023-08-20T12:16:45;7.95;;;5.50;;
54705;SDS011;40603;48.774;8.916;2023-08-20T12:19:10;7.45;;;4.80;;
54705;SDS011;40603;48.774;8.916;2023-08-20T12:21:35;10.95;;;4.95;;
54705;SDS011;40603;48.774;8.916;2023-08-20T12:24:00;9.20;;;5.73;;
54705;SDS011;40603;48.774;8.916;2023-08-20T12:26:26;14.17;;;5.23;;
54705;SDS011;40603;48.774;8.916;2023-08-20T12:28:51;10.63;;;4.68;;
54705;SDS011;40603;48.774;8.916;2023-08-20T12:31:16;6.47;;;4.63;;
54705;SDS011;40603;48.774;8.916;2023-08-20T12:33:42;6.93;;;5.20;;
54705;SDS011;40603;48.774;8.916;2023-08-20T12:36:07;9.02;;;4.95;;
54705;SDS011;40603;48.774;8.916;2023-08-20T12:38:32;9.20;;;4.95;;
54705;SDS011;40603;48.774;8.916;2023-08-20T12:40:59;8.15;;;4.75;;
54705;SDS011;40603;48.774;8.916;2023-08-20T12:43:25;10.60;;;4.78;;
54705;SDS011;40603;48.774;8.916;2023-08-20T12:45:50;9.03;;;4.53;;
54705;SDS011;40603;48.774;8.916;2023-08-20T12:48:15;8.40;;;4.83;;
54705;SDS011;40603;48.774;8.916;2023-08-20T12:50:41;8.13;;;5.43;;
54705;SDS011;40603;48.774;8.916;2023-08-20T12:53:06;4.97;;;4.47;;
54705;SDS011;40603;48.774;8.916;2023-08-20T12:55:31;11.00;;;4.73;;
54705;SDS011;40603;48.774;8.916;2023-08-20T12:57:57;8.15;;;4.82;;
54705;SDS011;40603;48.774;8.916;2023-08-20T13:00:23;8.15;;;5.20;;
54705;SDS011;40603;48.774;8.916;2023-08-20T13:02:50;6.53;;;4.60;;
54705;SDS011;40603;48.774;8.916;2023-08-20T13:05:15;7.03;;;4.68;;
54705;SDS011;40603;48.774;8.916;2023-08-20T13:07:40;8.02;;;4.82;;
54705;SDS011;40603;48.774;8.916;2023-08-20T13:10:06;5.95;;;4.50;;
54705;SDS011;40603;48.774;8.916;2023-08-20T13:12:33;8.55;;;5.10;;
54705;SDS011;40603;48.774;8.916;2023-08-20T13:14:58;6.93;;;4.50;;
54705;SDS011;40603;48.774;8.916;2023-08-20T13:17:24;8.15;;;4.63;;
54705;SDS011;40603;48.774;8.916;2023-08-20T13:19:49;8.93;;;4.57;;
54705;SDS011;40603;48.774;8.916;2023-08-20T13:22:14;7.30;;;4.50;;
54705;SDS011;40603;48.774;8.916;2023-08-20T13:24:39;9.23;;;5.13;;
54705;SDS011;40603;48.774;8.916;2023-08-20T13:27:05;7.82;;;4.28;;
54705;SDS011;40603;48.774;8.916;2023-08-20T13:29:30;8.90;;;4.97;;
54705;SDS011;40603;48.774;8.916;2023-08-20T13:31:55;8.52;;;4.95;;
54705;SDS011;40603;48.774;8.916;2023-08-20T13:34:20;6.87;;;4.70;;
54705;SDS011;40603;48.774;8.916;2023-08-20T13:36:45;9.70;;;4.50;;
54705;SDS011;40603;48.774;8.916;2023-08-20T13:39:11;7.65;;;4.40;;
54705;SDS011;40603;48.774;8.916;2023-08-20T13:41:38;9.55;;;4.88;;
54705;SDS011;40603;48.774;8.916;2023-08-20T13:44:03;14.33;;;5.17;;
54705;SDS011;40603;48.774;8.916;2023-08-20T13:46:29;10.70;;;4.32;;
54705;SDS011;40603;48.774;8.916;2023-08-20T13:48:54;9.90;;;4.78;;
54705;SDS011;40603;48.774;8.916;2023-08-20T13:51:19;9.30;;;4.60;;
54705;SDS011;40603;48.774;8.916;2023-08-20T13:53:44;6.50;;;4.23;;
54705;SDS011;40603;48.774;8.916;2023-08-20T13:56:09;11.13;;;4.40;;
54705;SDS011;40603;48.774;8.916;2023-08-20T13:58:34;10.70;;;5.03;;
54705;SDS011;40603;48.774;8.916;2023-08-20T14:01:00;5.70;;;3.88;;
54705;SDS011;40603;48.774;8.916;2023-08-20T14:03:25;9.80;;;4.18;;
54705;SDS011;40603;48.774;8.916;2023-08-20T14:05:50;8.25;;;5.13;;
54705;SDS011;40603;48.774;8.916;2023-08-20T14:08:15;8.57;;;4.50;;
54705;SDS011;40603;48.774;8.916;2023-08-20T14:10:40;8.93;;;4.90;;
54705;SDS011;40603;48.774;8.916;2023-08-20T14:13:05;11.27;;;5.18;;
54705;SDS011;40603;48.774;8.916;2023-08-20T14:15:31;9.50;;;4.85;;
54705;SDS011;40603;48.774;8.916;2023-08-20T14:17:56;10.30;;;4.13;;
54705;SDS011;40603;48.774;8.916;2023-08-20T14:20:21;9.90;;;5.37;;
54705;SDS011;40603;48.774;8.916;2023-08-20T14:22:46;6.93;;;5.00;;
54705;SDS011;40603;48.774;8.916;2023-08-20T14:25:11;7.70;;;4.82;;
54705;SDS011;40603;48.774;8.916;2023-08-20T14:27:37;7.25;;;4.80;;
54705;SDS011;40603;48.774;8.916;2023-08-20T14:30:02;8.70;;;4.68;;
54705;SDS011;40603;48.774;8.916;2023-08-20T14:32:28;8.02;;;5.13;;
54705;SDS011;40603;48.774;8.916;2023-08-20T14:34:53;10.68;;;5.88;;
54705;SDS011;40603;48.774;8.916;2023-08-20T14:37:18;7.60;;;5.23;;
54705;SDS011;40603;48.774;8.916;2023-08-20T14:39:43;10.40;;;5.40;;
54705;SDS011;40603;48.774;8.916;2023-08-20T14:42:08;9.10;;;4.30;;
54705;SDS011;40603;48.774;8.916;2023-08-20T14:44:33;11.00;;;5.97;;